Silver Creek, Washington
Current Conditions -  °F | °C
As of 8:35 AM on Tuesday 21 Oct 2014 (Local Time) from KCLS Reporting Station
Broken Clouds Broken Clouds  
Wind Chill: 54°   Ceiling: 6000
Heat Index: 54°   Visibility: 10mi
Dew Point: 54°   Wind: 8mph
Humidity: 100%   Direction: 180°S
Pressure: 29.91"   Gusts: NA
Location:  46.53°N, 122.59°W
Report Text: KCLS 211535Z AUTO 18007KT 10SM FEW011 SCT035 BKN060 12/12 A2991 RMK AO2
Loading
Personal Weather Stations






























Interactive Weather Map
Tropical Storm Tracking
New forecast layout! Learn more

10-Day Weather Forecast

Advertisements
Track Severe Weather on mobile